Estación Meteorológica Peña el Pijo (Robertgarden) [ 11/17/17 23:58:11 CET ]

Fecha Hora Presion(HPa) Temp (°C) Humedad % Rocio (°C) Viento ( m/s) Direccion Lluvia 1Hora(mm) Lluvia 24H(mm) LLuvia Total(mm)
2017-Sep-04 01:01:36 1010.100 18.1 65 11.4         1457.65
2017-Sep-04 02:01:34 1009.900 16.8 68 10.9         1457.65
2017-Sep-04 03:02:15 1009.500 15.8 72 10.8         1457.65
2017-Sep-04 04:01:41 1009.600 15.9 73 11.1         1457.65
2017-Sep-04 05:01:38 1009.300 15.4 74 10.8         1457.65
2017-Sep-04 06:01:38 1009.100 14.1 78 10.3         1457.65
2017-Sep-04 07:01:35 1009.100 13.5 80 10.1         1457.65
2017-Sep-04 08:01:55 1009.500 12.2 82 9.2         1457.65
2017-Sep-04 09:01:40 1009.500 15.6 86 13.3         1457.65
2017-Sep-04 10:01:41 1009.600 22.5 65 15.6         1457.65
2017-Sep-04 11:01:38 1009.700 26.8 37 10.8         1457.65
2017-Sep-04 12:01:41 1009.700 29.7 30 10.3         1457.65
2017-Sep-04 13:01:33 1009.700 31.1 21 6.2         1457.65
2017-Sep-04 14:01:48 1009.600 31.2 21 6.2         1457.65
2017-Sep-04 15:01:45 1009.600 32.4 20 6.6         1457.65
2017-Sep-04 16:01:55 1009.500 32.8 19 6.0 0.3 WSW     1457.65
2017-Sep-04 17:01:48 1009.500 33.2 20 7.3         1457.65
2017-Sep-04 18:01:44 1009.700 31.5 19 4.9         1457.65
2017-Sep-04 19:01:58 1010.100 30.4 21 5.5         1457.65
2017-Sep-04 20:01:38 1011.000 25.2 26 4.1         1457.65
2017-Sep-04 21:01:39 1011.900 21.2 37 5.8         1457.65
2017-Sep-04 22:01:55 1012.700 19.4 47 7.8         1457.65
2017-Sep-04 23:01:48 1013.400 17.0 57 8.4         1457.65

Temperatura Máxima:33°    Temperatura Mínima:12°
Presión Máxima:1013.400 Hpa    Presión Mínima:1009.100 Hpa


Volver